24A

Jackson County Airport

Sylva, North Carolina, USA
METAR K24A 210935Z AUTO 00000KT 5SM -RA BR SCT006 SCT043 BKN110 17/17 A3004 RMK AO2 LTG DSNT SE W AND NW T01750170
Observed Flight Rules
Jul-21 @ 09:35 UTC (21 minutes ago) Marginal Visual Flight Rules
Visibility Clouds Conditions
5 miles
  • Scattered at 600' AGL
  • Scattered at 4,300' AGL
  • Broken at 11,000' AGL
  • Light Rain
  • Mist
Temperatures Readings
Current 18°C / 64°F
Dewpoint 17°C / 63°F
Humidity 94%
Altimeter 30.04" Hg
Pressure 1017 hPa
Elevation 871
METAR K24A 210935Z AUTO 00000KT 5SM -RA BR SCT006 SCT043 BKN110 17/17 A3004 RMK AO2 LTG DSNT SE W AND NW T01750170
Observed Flight Rules
Jul-21 @ 09:35 UTC
(21 minutes ago)
MVFR
Clouds
  • Scattered at 600' AGL
  • Scattered at 4,300' AGL
  • Broken at 11,000' AGL
Conditions
  • Light Rain
  • Mist
Temperature Dewpoint
18°C / 64°F 17°C / 63°F
Humidity Altimeter Pressure
94% 30.04" Hg 1017 hPa